createdAt,value
2019-05-03T00:00:04.636Z,957.09
2019-05-03T00:15:04.437Z,957.23
2019-05-03T00:30:04.884Z,957.09
2019-05-03T00:45:05.120Z,957.17
2019-05-03T01:00:04.386Z,957.25
2019-05-03T01:15:04.747Z,957.5
2019-05-03T01:30:04.727Z,957.31
2019-05-03T01:45:05.069Z,957.39
2019-05-03T02:00:04.876Z,957.58
2019-05-03T02:15:04.644Z,957.36
2019-05-03T02:30:04.569Z,957.42
2019-05-03T02:45:06.304Z,957.55
2019-05-03T03:00:05.419Z,957.8
2019-05-03T03:15:11.545Z,957.99
2019-05-03T03:30:08.368Z,958.02
2019-05-03T03:45:06.584Z,958.23
2019-05-03T04:00:10.775Z,958.42
2019-05-03T04:15:10.940Z,958.67
2019-05-03T04:30:06.247Z,959.1
2019-05-03T04:45:06.270Z,959.08
2019-05-03T05:00:16.948Z,959.21
2019-05-03T05:15:05.531Z,959.29
2019-05-03T05:30:05.089Z,959.43
2019-05-03T05:45:05.228Z,959.54
2019-05-03T06:00:05.138Z,959.59
2019-05-03T06:15:04.983Z,959.7
2019-05-03T06:30:04.951Z,959.62
2019-05-03T06:45:16.980Z,959.92
2019-05-03T07:00:05.526Z,959.81
2019-05-03T07:15:05.445Z,959.78
2019-05-03T07:30:05.087Z,959.97
2019-05-03T07:45:05.204Z,959.81
2019-05-03T08:00:05.454Z,959.81
2019-05-03T08:15:05.574Z,959.7
2019-05-03T08:30:05.051Z,959.59
2019-05-03T08:45:08.308Z,959.57
2019-05-03T09:00:05.521Z,959.59
2019-05-03T09:15:04.945Z,959.43
2019-05-03T09:30:05.295Z,959.43
2019-05-03T09:45:05.207Z,959.32
2019-05-03T10:00:05.205Z,959.1
2019-05-03T10:15:06.784Z,958.72
2019-05-03T10:30:17.224Z,958.4
2019-05-03T10:45:04.940Z,958.21
2019-05-03T11:00:05.262Z,957.88
2019-05-03T11:15:04.562Z,957.42
2019-05-03T11:30:05.241Z,957.36
2019-05-03T11:45:04.998Z,957.12
2019-05-03T12:00:05.570Z,957.23
2019-05-03T12:15:04.906Z,957.31
2019-05-03T12:30:05.394Z,956.82
2019-05-03T12:45:04.986Z,956.6
2019-05-03T13:00:05.327Z,956.19
2019-05-03T13:15:05.309Z,956
2019-05-03T13:30:05.405Z,955.57
2019-05-03T13:45:10.108Z,956.25
2019-05-03T14:00:11.015Z,956.71
2019-05-03T14:15:05.949Z,957.06
2019-05-03T14:30:05.676Z,957.28
2019-05-03T14:45:04.840Z,957.06
2019-05-03T15:00:05.099Z,956.63
2019-05-03T15:15:05.552Z,956.46
2019-05-03T15:30:05.135Z,956.46
2019-05-03T15:45:05.466Z,956.08
2019-05-03T16:00:05.710Z,955.98
2019-05-03T16:15:09.963Z,956.06
2019-05-03T16:30:04.962Z,955.81
2019-05-03T16:45:05.784Z,955.68
2019-05-03T17:00:05.900Z,955.57
2019-05-03T17:15:10.295Z,955.7
2019-05-03T17:30:04.844Z,955.78
2019-05-03T17:45:05.520Z,955.78
2019-05-03T18:00:04.763Z,955.78
2019-05-03T18:15:05.957Z,955.98
2019-05-03T18:30:04.964Z,956.22
2019-05-03T18:45:04.819Z,956.6
2019-05-03T19:00:08.488Z,956.76
2019-05-03T19:15:05.579Z,956.85
2019-05-03T19:30:04.936Z,957.17
2019-05-03T19:45:04.674Z,957.2
2019-05-03T20:00:05.744Z,957.99
2019-05-03T20:15:05.581Z,958.1
2019-05-03T20:30:06.048Z,958.15
2019-05-03T20:45:05.557Z,958.48
2019-05-03T21:00:04.804Z,958.61
2019-05-03T21:15:05.222Z,958.53
2019-05-03T21:30:04.873Z,958.45
2019-05-03T21:45:04.997Z,958.45
2019-05-03T22:00:05.849Z,958.45
2019-05-03T22:15:05.289Z,958.42
2019-05-03T22:30:04.241Z,958.34
2019-05-03T22:45:04.992Z,958.15
2019-05-03T23:00:06.562Z,958.15
2019-05-03T23:15:04.796Z,957.99
2019-05-03T23:30:05.211Z,958.12
2019-05-03T23:45:05.184Z,958.07
